Ekwok, AK

4:22 PM AKDT on October 24, 2014 (GMT -0800)
Iliamna | Change Station
CLOSE
Current Station
Airport
Location: Iliamna,
Elevation: 161 ft
Nearby Weather Stations

Elev 161 ft 59.75 °N, 154.91 °W | Updated 29 minutes ago

Scattered Clouds
Scattered Clouds
38 °F
Feels Like 32 °F
N
8
Wind Variable Wind from NNW

Today
High -- | Low -- °F
--% Chance of Precip.
Yesterday
High -- | Low -- °F
Precip. -- in
9:30 AM 6:57 PM
New Moon, 1% visible
Pressure 29.94 in
Visibility 10.0 miles
Clouds Few 1700 ft
Scattered Clouds 3000 ft
Windchill 32 °F
Dew Point 27 °F
Humidity 65%
Rainfall 0.02 in
Snow Depth Not available.
UV 1 out of 12
Pollen Not available.
Air Quality Not available.
Flu Activity Local Activity
METAR PAIL 242353Z 33007KT 10SM FEW017 SCT030 03/M03 A2993 RMK AO2 SLP137 T00331028 10039 21011 51009

More Conditions Fewer Conditions

Pressure 29.94 in
Visibility 10.0 miles
Clouds Few 1700 ft
Scattered Clouds 3000 ft
Windchill 32 °F
Dew Point 27 °F
Humidity 65%
Rainfall 0.02 in
Snow Depth Not available.
UV 1 out of 12
Pollen Not available.
Air Quality Not available.
Flu Activity Local Activity
METAR PAIL 242353Z 33007KT 10SM FEW017 SCT030 03/M03 A2993 RMK AO2 SLP137 T00331028 10039 21011 51009

More Conditions Fewer Conditions

10-Day Weather Forecast

Almanac

Astronomy

Oct. 24, 2014 Rise Set
Actual Time 9:30 AM AKDT 6:57 PM AKDT
Civil Twilight 8:48 AM AKDT 7:39 PM AKDT
Nautical Twilight 8:00 AM AKDT 8:27 PM AKDT
Astronomical Twilight 7:13 AM AKDT 9:14 PM AKDT
Moon 10:32 AM AKDT (10/24) 7:30 PM AKDT (10/24)
Length of Visible Light 10h 51m
Length of Day
9h 26m
Tomorrow will be 5m 8s shorter.
New Moon, 1% of the Moon is Illuminated
Today
New Moon
Oct 30
First Quarter
Nov 6
Full
Nov 14
Last Quarter
Nov 22
New

Today's Extremes

State Highs State Lows

Community

WunderPhotos

Upload Photos

1,764,727 photos uploaded!

WunderBlogs® & News

Nearby

Snow Depth

Station Depth Elevation
Port Graham 0 in 300 ft
Mcneil Canyon 1 in 1320 ft
Cooper Lake 0 in 1200 ft
Summit Creek 3 in 1400 ft
Point Mackenzie 1 in 200 ft

Earthquake Activity

City Distance Mag. Time & Date
No recent earthquake activity has been reported nearby.
Minimum magnitude displayed is 2.5.

Coastal Water Temperatures

Place Temperature
No Stations Reporting

Nearby Weather Stations